sensor_id;sensor_type;location;lat;lon;timestamp;pressure;altitude;pressure_sealevel;temperature;humidity
73748;BME280;62056;52.130;5.428;2022-09-09T00:01:08;100977.13;;;16.25;76.88
73748;BME280;62056;52.130;5.428;2022-09-09T00:03:45;100975.72;;;16.27;77.21
73748;BME280;62056;52.130;5.428;2022-09-09T00:08:58;100962.94;;;16.24;76.92
73748;BME280;62056;52.130;5.428;2022-09-09T00:11:43;100956.78;;;16.24;76.78
73748;BME280;62056;52.130;5.428;2022-09-09T00:14:47;100959.00;;;16.22;76.40
73748;BME280;62056;52.130;5.428;2022-09-09T00:17:41;100947.03;;;16.19;77.18
73748;BME280;62056;52.130;5.428;2022-09-09T00:20:16;100951.28;;;16.20;76.65
73748;BME280;62056;52.130;5.428;2022-09-09T00:22:54;100952.88;;;16.21;77.75
73748;BME280;62056;52.130;5.428;2022-09-09T00:25:34;100951.28;;;16.20;77.24
73748;BME280;62056;52.130;5.428;2022-09-09T00:28:16;100946.38;;;16.22;77.85
73748;BME280;62056;52.130;5.428;2022-09-09T00:30:44;100952.72;;;16.17;76.65
73748;BME280;62056;52.130;5.428;2022-09-09T00:33:17;100953.50;;;16.18;79.78
73748;BME280;62056;52.130;5.428;2022-09-09T00:36:03;100958.38;;;16.16;79.42
73748;BME280;62056;52.130;5.428;2022-09-09T00:38:35;100962.50;;;16.13;77.24
73748;BME280;62056;52.130;5.428;2022-09-09T00:41:11;100951.00;;;16.13;78.74
73748;BME280;62056;52.130;5.428;2022-09-09T00:43:41;100952.09;;;16.12;77.69
73748;BME280;62056;52.130;5.428;2022-09-09T00:46:37;100952.41;;;16.10;78.26
73748;BME280;62056;52.130;5.428;2022-09-09T00:49:28;100941.53;;;16.07;78.48
73748;BME280;62056;52.130;5.428;2022-09-09T00:52:30;100945.97;;;16.03;78.00
73748;BME280;62056;52.130;5.428;2022-09-09T00:57:53;100957.50;;;15.94;77.88
73748;BME280;62056;52.130;5.428;2022-09-09T01:00:23;100945.06;;;15.90;77.88
73748;BME280;62056;52.130;5.428;2022-09-09T01:03:22;100953.41;;;15.88;80.02
73748;BME280;62056;52.130;5.428;2022-09-09T01:11:21;100960.38;;;15.81;78.36
73748;BME280;62056;52.130;5.428;2022-09-09T01:13:53;100961.63;;;15.74;78.64
73748;BME280;62056;52.130;5.428;2022-09-09T01:16:22;100965.91;;;15.75;78.32
73748;BME280;62056;52.130;5.428;2022-09-09T01:18:52;100959.28;;;15.73;78.34
73748;BME280;62056;52.130;5.428;2022-09-09T01:24:04;100950.91;;;15.66;78.76
73748;BME280;62056;52.130;5.428;2022-09-09T01:26:39;100953.41;;;15.62;78.58
73748;BME280;62056;52.130;5.428;2022-09-09T01:29:12;100942.22;;;15.60;79.04
73748;BME280;62056;52.130;5.428;2022-09-09T01:31:59;100941.75;;;15.58;78.40
73748;BME280;62056;52.130;5.428;2022-09-09T01:34:29;100940.66;;;15.59;79.62
73748;BME280;62056;52.130;5.428;2022-09-09T01:37:09;100932.78;;;15.54;79.99
73748;BME280;62056;52.130;5.428;2022-09-09T01:39:39;100934.34;;;15.55;79.08
73748;BME280;62056;52.130;5.428;2022-09-09T01:42:10;100939.56;;;15.51;78.58
73748;BME280;62056;52.130;5.428;2022-09-09T01:44:38;100939.41;;;15.48;78.74
73748;BME280;62056;52.130;5.428;2022-09-09T01:47:06;100944.44;;;15.49;79.14
73748;BME280;62056;52.130;5.428;2022-09-09T01:49:33;100945.09;;;15.46;78.30
73748;BME280;62056;52.130;5.428;2022-09-09T01:52:00;100942.25;;;15.43;78.68
73748;BME280;62056;52.130;5.428;2022-09-09T01:54:29;100941.00;;;15.40;78.64
73748;BME280;62056;52.130;5.428;2022-09-09T01:57:16;100938.31;;;15.40;80.11
73748;BME280;62056;52.130;5.428;2022-09-09T01:59:51;100940.53;;;15.38;78.96
73748;BME280;62056;52.130;5.428;2022-09-09T02:02:30;100940.84;;;15.36;79.68
73748;BME280;62056;52.130;5.428;2022-09-09T02:05:14;100935.00;;;15.34;78.61
73748;BME280;62056;52.130;5.428;2022-09-09T02:07:52;100934.84;;;15.31;78.52
73748;BME280;62056;52.130;5.428;2022-09-09T02:11:00;100929.34;;;15.27;79.43
73748;BME280;62056;52.130;5.428;2022-09-09T02:13:46;100927.44;;;15.28;79.29
73748;BME280;62056;52.130;5.428;2022-09-09T02:19:06;100921.13;;;15.24;79.64
73748;BME280;62056;52.130;5.428;2022-09-09T02:21:35;100921.44;;;15.22;79.29
73748;BME280;62056;52.130;5.428;2022-09-09T02:24:05;100926.03;;;15.22;78.93
73748;BME280;62056;52.130;5.428;2022-09-09T02:26:39;100917.03;;;15.17;78.59
73748;BME280;62056;52.130;5.428;2022-09-09T02:29:14;100919.25;;;15.15;79.09
73748;BME280;62056;52.130;5.428;2022-09-09T02:31:44;100918.00;;;15.13;79.94
73748;BME280;62056;52.130;5.428;2022-09-09T02:34:13;100920.97;;;15.11;78.81
73748;BME280;62056;52.130;5.428;2022-09-09T02:36:42;100919.84;;;15.12;79.38
73748;BME280;62056;52.130;5.428;2022-09-09T02:39:10;100918.28;;;15.11;79.27
73748;BME280;62056;52.130;5.428;2022-09-09T02:41:40;100917.03;;;15.09;79.45
73748;BME280;62056;52.130;5.428;2022-09-09T02:44:11;100920.81;;;15.08;79.77
73748;BME280;62056;52.130;5.428;2022-09-09T02:49:38;100920.19;;;15.02;79.45
73748;BME280;62056;52.130;5.428;2022-09-09T02:52:08;100918.91;;;15.00;79.17
73748;BME280;62056;52.130;5.428;2022-09-09T02:54:42;100918.13;;;14.99;79.00
73748;BME280;62056;52.130;5.428;2022-09-09T02:57:19;100920.81;;;14.99;79.47
73748;BME280;62056;52.130;5.428;2022-09-09T02:59:46;100915.59;;;14.94;79.17
73748;BME280;62056;52.130;5.428;2022-09-09T03:02:13;100909.44;;;14.93;79.34
73748;BME280;62056;52.130;5.428;2022-09-09T03:04:41;100909.44;;;14.93;79.76
73748;BME280;62056;52.130;5.428;2022-09-09T03:07:11;100913.25;;;14.92;79.69
73748;BME280;62056;52.130;5.428;2022-09-09T03:09:38;100909.31;;;14.90;79.15
73748;BME280;62056;52.130;5.428;2022-09-09T03:12:05;100911.97;;;14.90;79.53
73748;BME280;62056;52.130;5.428;2022-09-09T03:14:32;100905.34;;;14.87;79.46
73748;BME280;62056;52.130;5.428;2022-09-09T03:16:59;100909.44;;;14.85;79.34
73748;BME280;62056;52.130;5.428;2022-09-09T03:19:27;100905.19;;;14.84;79.68
73748;BME280;62056;52.130;5.428;2022-09-09T03:21:55;100911.94;;;14.81;79.19
73748;BME280;62056;52.130;5.428;2022-09-09T03:24:22;100916.03;;;14.78;80.00
73748;BME280;62056;52.130;5.428;2022-09-09T03:26:49;100913.38;;;14.78;79.93
73748;BME280;62056;52.130;5.428;2022-09-09T03:29:17;100905.63;;;14.77;79.56
73748;BME280;62056;52.130;5.428;2022-09-09T03:31:46;100909.72;;;14.74;79.89
73748;BME280;62056;52.130;5.428;2022-09-09T03:34:13;100906.59;;;14.72;79.51
73748;BME280;62056;52.130;5.428;2022-09-09T03:36:40;100903.13;;;14.72;79.50
73748;BME280;62056;52.130;5.428;2022-09-09T03:39:07;100908.78;;;14.70;79.48
73748;BME280;62056;52.130;5.428;2022-09-09T03:41:34;100910.69;;;14.70;79.87
73748;BME280;62056;52.130;5.428;2022-09-09T03:44:00;100915.56;;;14.68;80.00
73748;BME280;62056;52.130;5.428;2022-09-09T03:46:27;100916.66;;;14.67;79.75
73748;BME280;62056;52.130;5.428;2022-09-09T03:48:53;100908.47;;;14.63;79.87
73748;BME280;62056;52.130;5.428;2022-09-09T03:51:20;100906.09;;;14.62;79.71
73748;BME280;62056;52.130;5.428;2022-09-09T03:53:48;100901.84;;;14.61;79.92
73748;BME280;62056;52.130;5.428;2022-09-09T03:56:15;100905.63;;;14.60;80.49
73748;BME280;62056;52.130;5.428;2022-09-09T03:58:41;100900.25;;;14.60;79.89
73748;BME280;62056;52.130;5.428;2022-09-09T04:01:11;100903.25;;;14.58;80.16
73748;BME280;62056;52.130;5.428;2022-09-09T04:03:40;100909.41;;;14.59;80.65
73748;BME280;62056;52.130;5.428;2022-09-09T04:06:08;100892.88;;;14.56;80.33
73748;BME280;62056;52.130;5.428;2022-09-09T04:08:35;100901.16;;;14.55;80.13
73748;BME280;62056;52.130;5.428;2022-09-09T04:11:04;100898.31;;;14.51;80.44
73748;BME280;62056;52.130;5.428;2022-09-09T04:13:34;100901.00;;;14.51;80.26
73748;BME280;62056;52.130;5.428;2022-09-09T04:16:02;100894.09;;;14.50;80.48
73748;BME280;62056;52.130;5.428;2022-09-09T04:18:30;100903.97;;;14.50;80.33
73748;BME280;62056;52.130;5.428;2022-09-09T04:20:57;100899.75;;;14.49;80.48
73748;BME280;62056;52.130;5.428;2022-09-09T04:23:26;100902.72;;;14.47;80.53
73748;BME280;62056;52.130;5.428;2022-09-09T04:25:56;100897.66;;;14.46;80.13
73748;BME280;62056;52.130;5.428;2022-09-09T04:28:25;100892.31;;;14.46;80.64
73748;BME280;62056;52.130;5.428;2022-09-09T04:30:52;100883.50;;;14.45;81.06
73748;BME280;62056;52.130;5.428;2022-09-09T04:33:19;100886.50;;;14.44;80.55
73748;BME280;62056;52.130;5.428;2022-09-09T04:35:47;100895.31;;;14.44;80.33
73748;BME280;62056;52.130;5.428;2022-09-09T04:38:16;100898.00;;;14.44;81.00
73748;BME280;62056;52.130;5.428;2022-09-09T04:40:46;100891.88;;;14.44;81.22
73748;BME280;62056;52.130;5.428;2022-09-09T04:43:13;100896.88;;;14.45;81.07
73748;BME280;62056;52.130;5.428;2022-09-09T04:45:44;100890.44;;;14.46;81.35
73748;BME280;62056;52.130;5.428;2022-09-09T04:48:13;100880.53;;;14.47;80.66
73748;BME280;62056;52.130;5.428;2022-09-09T04:50:40;100880.22;;;14.48;80.98
73748;BME280;62056;52.130;5.428;2022-09-09T04:53:08;100879.13;;;14.49;81.09
73748;BME280;62056;52.130;5.428;2022-09-09T04:55:35;100878.03;;;14.50;80.82
73748;BME280;62056;52.130;5.428;2022-09-09T04:58:06;100868.88;;;14.51;81.23
73748;BME280;62056;52.130;5.428;2022-09-09T05:00:35;100874.25;;;14.51;81.55
73748;BME280;62056;52.130;5.428;2022-09-09T05:03:03;100880.38;;;14.52;81.57
73748;BME280;62056;52.130;5.428;2022-09-09T05:05:31;100885.25;;;14.50;81.58
73748;BME280;62056;52.130;5.428;2022-09-09T05:08:04;100882.91;;;14.48;81.83
73748;BME280;62056;52.130;5.428;2022-09-09T05:10:31;100885.56;;;14.48;81.47
73748;BME280;62056;52.130;5.428;2022-09-09T05:12:58;100882.09;;;14.48;81.56
73748;BME280;62056;52.130;5.428;2022-09-09T05:15:25;100884.00;;;14.47;81.53
73748;BME280;62056;52.130;5.428;2022-09-09T05:17:51;100875.47;;;14.45;81.43
73748;BME280;62056;52.130;5.428;2022-09-09T05:20:19;100879.28;;;14.44;81.02
73748;BME280;62056;52.130;5.428;2022-09-09T05:22:46;100879.28;;;14.44;81.72
73748;BME280;62056;52.130;5.428;2022-09-09T05:25:13;100870.13;;;14.45;81.70
73748;BME280;62056;52.130;5.428;2022-09-09T05:27:42;100874.69;;;14.45;81.63
73748;BME280;62056;52.130;5.428;2022-09-09T05:30:10;100865.56;;;14.46;82.13
73748;BME280;62056;52.130;5.428;2022-09-09T05:32:37;100862.88;;;14.46;81.85
73748;BME280;62056;52.130;5.428;2022-09-09T05:35:03;100859.44;;;14.45;82.17
73748;BME280;62056;52.130;5.428;2022-09-09T05:37:30;100858.66;;;14.45;81.76
73748;BME280;62056;52.130;5.428;2022-09-09T05:39:57;100857.88;;;14.44;81.77
73748;BME280;62056;52.130;5.428;2022-09-09T05:42:24;100864.78;;;14.45;81.83
73748;BME280;62056;52.130;5.428;2022-09-09T05:44:51;100871.72;;;14.46;82.47
73748;BME280;62056;52.130;5.428;2022-09-09T05:47:20;100866.03;;;14.48;82.02
73748;BME280;62056;52.130;5.428;2022-09-09T05:49:47;100866.84;;;14.48;82.24
73748;BME280;62056;52.130;5.428;2022-09-09T05:52:14;100872.19;;;14.48;82.77
73748;BME280;62056;52.130;5.428;2022-09-09T05:54:41;100864.16;;;14.48;82.87
73748;BME280;62056;52.130;5.428;2022-09-09T05:57:08;100864.16;;;14.48;82.32
73748;BME280;62056;52.130;5.428;2022-09-09T05:59:35;100870.00;;;14.50;82.54
73748;BME280;62056;52.130;5.428;2022-09-09T06:02:02;100878.50;;;14.52;83.06
73748;BME280;62056;52.130;5.428;2022-09-09T06:04:29;100872.53;;;14.55;82.87
73748;BME280;62056;52.130;5.428;2022-09-09T06:06:56;100883.41;;;14.59;82.78
73748;BME280;62056;52.130;5.428;2022-09-09T06:09:23;100879.50;;;14.65;82.86
73748;BME280;62056;52.130;5.428;2022-09-09T06:11:49;100882.50;;;14.72;83.46
73748;BME280;62056;52.130;5.428;2022-09-09T06:14:16;100874.00;;;14.79;83.61
73748;BME280;62056;52.130;5.428;2022-09-09T06:16:44;100880.47;;;14.87;83.86
73748;BME280;62056;52.130;5.428;2022-09-09T06:19:11;100881.59;;;14.94;83.80
73748;BME280;62056;52.130;5.428;2022-09-09T06:21:39;100869.31;;;15.02;84.17
73748;BME280;62056;52.130;5.428;2022-09-09T06:24:06;100872.28;;;15.09;84.16
73748;BME280;62056;52.130;5.428;2022-09-09T06:26:38;100870.72;;;15.17;84.66
73748;BME280;62056;52.130;5.428;2022-09-09T06:29:08;100870.25;;;15.24;84.53
73748;BME280;62056;52.130;5.428;2022-09-09T06:31:36;100871.66;;;15.30;84.76
73748;BME280;62056;52.130;5.428;2022-09-09T06:34:07;100873.06;;;15.36;84.50
73748;BME280;62056;52.130;5.428;2022-09-09T06:36:37;100862.50;;;15.40;84.40
73748;BME280;62056;52.130;5.428;2022-09-09T06:39:04;100860.91;;;15.47;84.59
73748;BME280;62056;52.130;5.428;2022-09-09T06:41:37;100850.97;;;15.56;84.51
73748;BME280;62056;52.130;5.428;2022-09-09T06:44:07;100857.22;;;15.69;84.44
73748;BME280;62056;52.130;5.428;2022-09-09T06:46:35;100856.75;;;15.76;84.71
73748;BME280;62056;52.130;5.428;2022-09-09T06:49:03;100856.41;;;15.86;84.57
73748;BME280;62056;52.130;5.428;2022-09-09T06:51:32;100855.59;;;15.94;84.76
73748;BME280;62056;52.130;5.428;2022-09-09T06:54:02;100857.78;;;16.01;84.67
73748;BME280;62056;52.130;5.428;2022-09-09T06:56:34;100864.84;;;16.06;85.06
73748;BME280;62056;52.130;5.428;2022-09-09T06:59:03;100855.06;;;16.10;85.11
73748;BME280;62056;52.130;5.428;2022-09-09T07:01:33;100855.19;;;16.13;84.87
73748;BME280;62056;52.130;5.428;2022-09-09T07:04:02;100861.19;;;16.19;85.04
73748;BME280;62056;52.130;5.428;2022-09-09T07:06:34;100856.28;;;16.21;84.85
73748;BME280;62056;52.130;5.428;2022-09-09T07:09:03;100850.56;;;16.23;84.39
73748;BME280;62056;52.130;5.428;2022-09-09T07:11:33;100853.09;;;16.28;84.37
73748;BME280;62056;52.130;5.428;2022-09-09T07:14:01;100862.84;;;16.32;84.61
73748;BME280;62056;52.130;5.428;2022-09-09T07:16:28;100853.81;;;16.37;84.66
73748;BME280;62056;52.130;5.428;2022-09-09T07:18:55;100859.31;;;16.41;83.83
73748;BME280;62056;52.130;5.428;2022-09-09T07:21:28;100860.72;;;16.47;84.84
73748;BME280;62056;52.130;5.428;2022-09-09T07:23:56;100863.53;;;16.50;84.79
73748;BME280;62056;52.130;5.428;2022-09-09T07:26:25;100854.81;;;16.53;83.65
73748;BME280;62056;52.130;5.428;2022-09-09T07:28:52;100859.56;;;16.56;83.14
73748;BME280;62056;52.130;5.428;2022-09-09T07:31:24;100861.88;;;16.58;84.32
73748;BME280;62056;52.130;5.428;2022-09-09T07:33:52;100863.63;;;16.63;83.85
73748;BME280;62056;52.130;5.428;2022-09-09T07:36:21;100872.44;;;16.63;83.51
73748;BME280;62056;52.130;5.428;2022-09-09T07:38:51;100881.94;;;16.61;83.40
73748;BME280;62056;52.130;5.428;2022-09-09T07:41:21;100879.72;;;16.63;83.12
73748;BME280;62056;52.130;5.428;2022-09-09T07:43:49;100873.69;;;16.66;83.22
73748;BME280;62056;52.130;5.428;2022-09-09T07:46:19;100864.19;;;16.68;83.21
73748;BME280;62056;52.130;5.428;2022-09-09T07:48:53;100866.34;;;16.75;82.69
73748;BME280;62056;52.130;5.428;2022-09-09T07:51:27;100864.28;;;16.81;83.15
73748;BME280;62056;52.130;5.428;2022-09-09T07:53:57;100858.75;;;16.86;82.33
73748;BME280;62056;52.130;5.428;2022-09-09T07:56:27;100846.34;;;16.93;82.29
73748;BME280;62056;52.130;5.428;2022-09-09T07:58:55;100848.84;;;16.98;81.38
73748;BME280;62056;52.130;5.428;2022-09-09T08:01:29;100860.97;;;17.05;82.14
73748;BME280;62056;52.130;5.428;2022-09-09T08:03:59;100859.19;;;17.09;81.54
73748;BME280;62056;52.130;5.428;2022-09-09T08:06:30;100862.44;;;17.14;81.28
73748;BME280;62056;52.130;5.428;2022-09-09T08:08:59;100867.16;;;17.17;81.34
73748;BME280;62056;52.130;5.428;2022-09-09T08:11:29;100860.34;;;17.20;81.11
73748;BME280;62056;52.130;5.428;2022-09-09T08:14:00;100860.78;;;17.22;80.48
73748;BME280;62056;52.130;5.428;2022-09-09T08:16:31;100860.47;;;17.24;80.30
73748;BME280;62056;52.130;5.428;2022-09-09T08:18:58;100865.97;;;17.27;80.10
73748;BME280;62056;52.130;5.428;2022-09-09T08:21:27;100867.88;;;17.27;80.12
73748;BME280;62056;52.130;5.428;2022-09-09T08:23:56;100868.22;;;17.25;79.29
73748;BME280;62056;52.130;5.428;2022-09-09T08:26:30;100874.38;;;17.26;79.66
73748;BME280;62056;52.130;5.428;2022-09-09T08:28:59;100873.69;;;17.29;79.21
73748;BME280;62056;52.130;5.428;2022-09-09T08:31:32;100880.97;;;17.28;79.08
73748;BME280;62056;52.130;5.428;2022-09-09T08:34:00;100884.44;;;17.29;79.12
73748;BME280;62056;52.130;5.428;2022-09-09T08:36:31;100885.56;;;17.28;78.57
73748;BME280;62056;52.130;5.428;2022-09-09T08:39:00;100885.91;;;17.26;78.82
73748;BME280;62056;52.130;5.428;2022-09-09T08:44:11;100884.34;;;17.25;78.19
73748;BME280;62056;52.130;5.428;2022-09-09T08:52:00;100892.41;;;17.25;78.30
73748;BME280;62056;52.130;5.428;2022-09-09T08:54:33;100892.50;;;17.29;78.06
73748;BME280;62056;52.130;5.428;2022-09-09T08:57:28;100890.63;;;17.29;77.65
73748;BME280;62056;52.130;5.428;2022-09-09T08:59:58;100901.47;;;17.33;78.08
73748;BME280;62056;52.130;5.428;2022-09-09T09:02:40;100899.25;;;17.35;77.60
73748;BME280;62056;52.130;5.428;2022-09-09T09:10:48;100897.00;;;17.37;76.25
73748;BME280;62056;52.130;5.428;2022-09-09T09:13:23;100901.75;;;17.40;77.08
73748;BME280;62056;52.130;5.428;2022-09-09T09:16:10;100901.06;;;17.43;77.51
73748;BME280;62056;52.130;5.428;2022-09-09T09:18:41;100905.34;;;17.44;77.19
73748;BME280;62056;52.130;5.428;2022-09-09T09:23:56;100905.81;;;17.46;76.60
73748;BME280;62056;52.130;5.428;2022-09-09T09:26:26;100910.06;;;17.47;76.90
73748;BME280;62056;52.130;5.428;2022-09-09T09:28:56;100902.75;;;17.48;76.93
73748;BME280;62056;52.130;5.428;2022-09-09T09:31:23;100907.38;;;17.47;76.30
73748;BME280;62056;52.130;5.428;2022-09-09T09:33:54;100908.94;;;17.48;76.47
73748;BME280;62056;52.130;5.428;2022-09-09T09:36:35;100914.44;;;17.52;76.78
73748;BME280;62056;52.130;5.428;2022-09-09T09:39:04;100904.13;;;17.54;76.79
73748;BME280;62056;52.130;5.428;2022-09-09T09:41:52;100908.41;;;17.55;76.38
73748;BME280;62056;52.130;5.428;2022-09-09T09:44:25;100908.84;;;17.57;75.94
73748;BME280;62056;52.130;5.428;2022-09-09T09:46:52;100905.84;;;17.58;76.50
73748;BME280;62056;52.130;5.428;2022-09-09T09:49:19;100898.22;;;17.60;76.06
73748;BME280;62056;52.130;5.428;2022-09-09T09:51:46;100902.94;;;17.64;76.29
73748;BME280;62056;52.130;5.428;2022-09-09T09:56:43;100906.84;;;17.66;76.39
73748;BME280;62056;52.130;5.428;2022-09-09T10:04:39;100902.06;;;17.72;75.95
73748;BME280;62056;52.130;5.428;2022-09-09T10:07:13;100906.31;;;17.73;75.32
73748;BME280;62056;52.130;5.428;2022-09-09T10:09:43;100895.91;;;17.71;75.57
73748;BME280;62056;52.130;5.428;2022-09-09T10:15:39;100907.22;;;17.77;75.48
73748;BME280;62056;52.130;5.428;2022-09-09T10:18:22;100901.06;;;17.76;75.09
73748;BME280;62056;52.130;5.428;2022-09-09T10:21:13;100899.16;;;17.77;75.02
73748;BME280;62056;52.130;5.428;2022-09-09T10:31:49;100908.03;;;17.77;75.05
73748;BME280;62056;52.130;5.428;2022-09-09T10:36:57;100915.72;;;17.79;75.00
73748;BME280;62056;52.130;5.428;2022-09-09T10:41:55;100911.03;;;17.76;75.67
73748;BME280;62056;52.130;5.428;2022-09-09T10:53:37;100917.84;;;17.61;77.49
73748;BME280;62056;52.130;5.428;2022-09-09T10:56:09;100917.06;;;17.60;77.81
73748;BME280;62056;52.130;5.428;2022-09-09T10:58:47;100919.06;;;17.64;78.22
73748;BME280;62056;52.130;5.428;2022-09-09T11:01:31;100908.00;;;17.65;78.35
73748;BME280;62056;52.130;5.428;2022-09-09T11:04:17;100915.59;;;17.63;79.83
73748;BME280;62056;52.130;5.428;2022-09-09T11:06:54;100905.75;;;17.67;79.24
73748;BME280;62056;52.130;5.428;2022-09-09T11:09:28;100906.44;;;17.76;79.81
73748;BME280;62056;52.130;5.428;2022-09-09T11:11:59;100905.91;;;17.83;80.02
73748;BME280;62056;52.130;5.428;2022-09-09T11:14:43;100900.47;;;17.92;80.72
73748;BME280;62056;52.130;5.428;2022-09-09T11:17:15;100900.34;;;18.00;80.31
73748;BME280;62056;52.130;5.428;2022-09-09T11:19:44;100900.25;;;18.09;80.03
73748;BME280;62056;52.130;5.428;2022-09-09T11:22:31;100899.47;;;18.21;80.07
73748;BME280;62056;52.130;5.428;2022-09-09T11:33:40;100894.44;;;18.32;77.86
73748;BME280;62056;52.130;5.428;2022-09-09T11:36:40;100895.19;;;18.32;77.98
73748;BME280;62056;52.130;5.428;2022-09-09T11:44:41;100885.22;;;18.45;77.51
73748;BME280;62056;52.130;5.428;2022-09-09T11:47:27;100885.53;;;18.44;77.04
73748;BME280;62056;52.130;5.428;2022-09-09T11:52:39;100881.03;;;18.48;77.08
73748;BME280;62056;52.130;5.428;2022-09-09T11:55:10;100885.31;;;18.49;76.98
73748;BME280;62056;52.130;5.428;2022-09-09T11:57:39;100888.03;;;18.49;76.37
73748;BME280;62056;52.130;5.428;2022-09-09T12:00:06;100889.47;;;18.46;76.49
73748;BME280;62056;52.130;5.428;2022-09-09T12:02:33;100893.16;;;18.41;77.07
73748;BME280;62056;52.130;5.428;2022-09-09T12:05:06;100883.41;;;18.37;77.15
73748;BME280;62056;52.130;5.428;2022-09-09T12:07:56;100892.50;;;18.32;77.31
73748;BME280;62056;52.130;5.428;2022-09-09T12:10:31;100885.34;;;18.24;77.35
73748;BME280;62056;52.130;5.428;2022-09-09T12:13:18;100888.59;;;18.17;77.62
73748;BME280;62056;52.130;5.428;2022-09-09T12:15:58;100890.72;;;18.12;77.65
73748;BME280;62056;52.130;5.428;2022-09-09T12:18:46;100892.50;;;18.08;77.58
73748;BME280;62056;52.130;5.428;2022-09-09T12:21:35;100895.09;;;18.04;77.60
73748;BME280;62056;52.130;5.428;2022-09-09T12:24:13;100887.69;;;18.01;78.23
73748;BME280;62056;52.130;5.428;2022-09-09T12:27:01;100896.44;;;17.98;78.91
73748;BME280;62056;52.130;5.428;2022-09-09T12:29:56;100887.78;;;17.92;78.18
73748;BME280;62056;52.130;5.428;2022-09-09T12:32:25;100890.59;;;17.84;78.40
73748;BME280;62056;52.130;5.428;2022-09-09T12:35:00;100885.03;;;17.80;79.56
73748;BME280;62056;52.130;5.428;2022-09-09T12:37:33;100890.88;;;17.82;79.26
73748;BME280;62056;52.130;5.428;2022-09-09T12:40:15;100890.22;;;17.85;79.68
73748;BME280;62056;52.130;5.428;2022-09-09T12:42:44;100883.50;;;17.91;79.41
73748;BME280;62056;52.130;5.428;2022-09-09T12:45:19;100884.88;;;17.97;79.54
73748;BME280;62056;52.130;5.428;2022-09-09T12:48:00;100878.50;;;18.02;79.63
73748;BME280;62056;52.130;5.428;2022-09-09T12:50:30;100881.41;;;18.09;80.22
73748;BME280;62056;52.130;5.428;2022-09-09T12:53:00;100875.34;;;18.12;79.61
73748;BME280;62056;52.130;5.428;2022-09-09T12:55:31;100870.78;;;18.13;79.42
73748;BME280;62056;52.130;5.428;2022-09-09T12:58:00;100881.63;;;18.16;79.29
73748;BME280;62056;52.130;5.428;2022-09-09T13:00:31;100875.13;;;18.17;79.27
73748;BME280;62056;52.130;5.428;2022-09-09T13:03:01;100864.81;;;18.19;79.17
73748;BME280;62056;52.130;5.428;2022-09-09T13:05:38;100871.88;;;18.24;79.11
73748;BME280;62056;52.130;5.428;2022-09-09T13:08:09;100870.84;;;18.29;79.14
73748;BME280;62056;52.130;5.428;2022-09-09T13:10:42;100875.34;;;18.37;79.22
73748;BME280;62056;52.130;5.428;2022-09-09T13:13:23;100883.28;;;18.46;79.08
73748;BME280;62056;52.130;5.428;2022-09-09T13:15:52;100883.19;;;18.54;79.09
73748;BME280;62056;52.130;5.428;2022-09-09T13:18:22;100877.34;;;18.65;78.96
73748;BME280;62056;52.130;5.428;2022-09-09T13:20:51;100876.75;;;18.71;78.42
73748;BME280;62056;52.130;5.428;2022-09-09T13:23:19;100871.47;;;18.75;78.20
73748;BME280;62056;52.130;5.428;2022-09-09T13:25:59;100876.50;;;18.76;78.02
73748;BME280;62056;52.130;5.428;2022-09-09T13:28:28;100872.94;;;18.72;77.20
73748;BME280;62056;52.130;5.428;2022-09-09T13:31:03;100871.38;;;18.71;77.42
73748;BME280;62056;52.130;5.428;2022-09-09T13:33:38;100873.38;;;18.74;77.76
73748;BME280;62056;52.130;5.428;2022-09-09T13:36:10;100873.03;;;18.76;77.31
73748;BME280;62056;52.130;5.428;2022-09-09T13:38:53;100870.03;;;18.77;76.61
73748;BME280;62056;52.130;5.428;2022-09-09T13:41:24;100867.00;;;18.79;76.91
73748;BME280;62056;52.130;5.428;2022-09-09T13:43:51;100874.31;;;18.78;77.13
73748;BME280;62056;52.130;5.428;2022-09-09T13:46:40;100863.63;;;18.82;76.51
73748;BME280;62056;52.130;5.428;2022-09-09T13:51:43;100865.19;;;18.83;76.47
73748;BME280;62056;52.130;5.428;2022-09-09T13:54:15;100860.25;;;18.85;76.32
73748;BME280;62056;52.130;5.428;2022-09-09T13:56:43;100864.19;;;18.88;76.39
73748;BME280;62056;52.130;5.428;2022-09-09T13:59:13;100866.53;;;18.89;76.13
73748;BME280;62056;52.130;5.428;2022-09-09T14:01:41;100867.66;;;18.88;75.74
73748;BME280;62056;52.130;5.428;2022-09-09T14:04:09;100861.50;;;18.88;75.71
73748;BME280;62056;52.130;5.428;2022-09-09T14:06:40;100860.47;;;18.92;75.39
73748;BME280;62056;52.130;5.428;2022-09-09T14:09:09;100865.06;;;18.92;75.67
73748;BME280;62056;52.130;5.428;2022-09-09T14:11:36;100866.97;;;18.91;75.44
73748;BME280;62056;52.130;5.428;2022-09-09T14:14:03;100870.78;;;18.90;75.41
73748;BME280;62056;52.130;5.428;2022-09-09T14:16:29;100861.94;;;18.90;75.38
73748;BME280;62056;52.130;5.428;2022-09-09T14:18:56;100856.53;;;18.90;75.29
73748;BME280;62056;52.130;5.428;2022-09-09T14:21:24;100857.31;;;18.90;75.43
73748;BME280;62056;52.130;5.428;2022-09-09T14:23:51;100856.19;;;18.91;75.17
73748;BME280;62056;52.130;5.428;2022-09-09T14:26:20;100854.19;;;18.88;75.44
73748;BME280;62056;52.130;5.428;2022-09-09T14:28:48;100854.53;;;18.87;75.48
73748;BME280;62056;52.130;5.428;2022-09-09T14:31:24;100861.38;;;18.84;75.79
73748;BME280;62056;52.130;5.428;2022-09-09T14:33:51;100859.03;;;18.83;75.62
73748;BME280;62056;52.130;5.428;2022-09-09T14:36:18;100860.94;;;18.82;75.56
73748;BME280;62056;52.130;5.428;2022-09-09T14:38:45;100859.72;;;18.79;75.89
73748;BME280;62056;52.130;5.428;2022-09-09T14:41:14;100858.00;;;18.75;76.06
73748;BME280;62056;52.130;5.428;2022-09-09T14:43:44;100861.72;;;18.70;75.98